Time;durP1;ratioP1;P1;durP2;ratioP2;P2;SDS_P1;SDS_P2;PMS_P1;PMS_P2;Temp;Humidity;BMP_temperature;BMP_pressure;BME280_temperature;BME280_humidity;BME280_pressure;Samples;Min_cycle;Max_cycle;Signal;HPM_P1;HPM_P2
2021/04/03 00:00:28;;;;;;;0.73;0.73;;;;;;;5.52;55.90;97291.00;29990;243;6000;-54
2021/04/03 00:01:00;;;;;;;0.80;0.80;;;;;;;5.47;56.09;97287.44;29990;210;6000;-57
2021/04/03 00:01:30;;;;;;;0.60;0.60;;;;;;;5.51;55.82;97288.56;29990;197;6000;-58
2021/04/03 00:02:02;;;;;;;0.60;0.60;;;;;;;5.57;55.64;97284.84;29990;218;6004;-57
2021/04/03 00:02:34;;;;;;;0.60;0.60;;;;;;;5.57;55.75;97288.34;29989;220;6000;-57
2021/04/03 00:03:07;;;;;;;0.60;0.60;;;;;;;5.56;55.91;97291.28;29990;213;6004;-57
2021/04/03 00:03:41;;;;;;;0.52;0.52;;;;;;;5.51;56.05;97288.56;29990;218;6000;-57
2021/04/03 00:04:12;;;;;;;0.70;0.70;;;;;;;5.35;56.58;97293.72;29990;279;6005;-57
2021/04/03 00:04:42;;;;;;;0.60;0.60;;;;;;;5.22;56.88;97291.41;29990;226;6000;-57
2021/04/03 00:05:15;;;;;;;1.75;1.20;;;;;;;5.14;57.58;97289.16;29990;210;6005;-57
2021/04/03 00:05:46;;;;;;;0.60;0.60;;;;;;;5.10;57.78;97293.41;29990;221;6000;-57
2021/04/03 00:06:17;;;;;;;0.60;0.60;;;;;;;5.17;57.57;97294.03;29989;236;6005;-57
2021/04/03 00:06:47;;;;;;;0.60;0.60;;;;;;;5.17;57.59;97294.03;29990;263;6000;-57
2021/04/03 00:07:19;;;;;;;0.60;0.60;;;;;;;5.14;57.83;97299.09;29990;205;6004;-56
2021/04/03 00:07:49;;;;;;;0.60;0.60;;;;;;;5.11;57.77;97297.72;29989;235;6000;-57
2021/04/03 00:08:24;;;;;;;0.60;0.60;;;;;;;5.05;57.84;97293.31;29990;197;6004;-57
2021/04/03 00:08:54;;;;;;;0.60;0.60;;;;;;;5.05;57.92;97296.00;29990;248;6000;-56
2021/04/03 00:09:25;;;;;;;0.60;0.60;;;;;;;5.04;58.02;97303.28;29990;261;6004;-57
2021/04/03 00:09:55;;;;;;;0.60;0.60;;;;;;;5.06;57.61;97300.34;29990;202;6000;-58
2021/04/03 00:11:00;;;;;;;0.60;0.60;;;;;;;5.20;56.94;97298.13;29990;252;6004;-57
2021/04/03 00:11:30;;;;;;;0.60;0.60;;;;;;;5.28;56.66;97286.91;29989;197;6000;-57
2021/04/03 00:12:01;;;;;;;0.60;0.60;;;;;;;5.34;56.50;97289.41;29989;229;6005;-57
2021/04/03 00:12:32;;;;;;;0.60;0.60;;;;;;;5.39;56.21;97292.19;29990;251;6000;-61
2021/04/03 00:13:03;;;;;;;0.60;0.60;;;;;;;5.54;55.35;97293.44;29990;205;6005;-56
2021/04/03 00:13:39;;;;;;;0.60;0.60;;;;;;;5.56;55.40;97293.97;29990;218;6000;-57
2021/04/03 00:14:10;;;;;;;3.22;1.87;;;;;;;5.63;54.88;97294.59;29989;209;6004;-57
2021/04/03 00:14:41;;;;;;;0.60;0.60;;;;;;;5.61;55.11;97288.66;29990;260;6000;-57
2021/04/03 00:15:15;;;;;;;0.60;0.60;;;;;;;5.51;55.45;97289.38;29990;219;6004;-57
2021/04/03 00:15:47;;;;;;;0.70;0.70;;;;;;;5.52;55.32;97287.50;29990;213;6000;-55
2021/04/03 00:16:17;;;;;;;0.60;0.60;;;;;;;5.51;55.61;97293.94;29990;244;6004;-57
2021/04/03 00:16:48;;;;;;;0.60;0.60;;;;;;;5.46;55.76;97294.69;29991;205;6000;-56
2021/04/03 00:17:19;;;;;;;0.60;0.60;;;;;;;5.50;55.61;97289.63;29990;263;6004;-59
2021/04/03 00:17:50;;;;;;;0.70;0.70;;;;;;;5.59;55.14;97288.09;29990;224;6000;-57
2021/04/03 00:18:20;;;;;;;0.60;0.60;;;;;;;5.64;54.77;97282.78;29990;218;6004;-58
2021/04/03 00:18:53;;;;;;;1.12;1.12;;;;;;;5.67;54.39;97283.09;29990;246;6000;-57
2021/04/03 00:19:23;;;;;;;0.93;0.93;;;;;;;5.63;54.60;97281.16;29989;197;6005;-57
2021/04/03 00:19:54;;;;;;;0.60;0.60;;;;;;;5.60;55.09;97287.03;29990;262;6000;-57
2021/04/03 00:20:29;;;;;;;0.60;0.60;;;;;;;5.52;55.28;97290.19;29991;218;6005;-57
2021/04/03 00:21:00;;;;;;;0.60;0.60;;;;;;;5.31;55.97;97294.47;29990;242;6000;-57
2021/04/03 00:21:31;;;;;;;0.60;0.60;;;;;;;5.16;56.50;97297.78;29990;257;6005;-56
2021/04/03 00:22:03;;;;;;;0.60;0.60;;;;;;;5.10;56.82;97296.09;29990;244;6000;-55
2021/04/03 00:22:33;;;;;;;0.60;0.60;;;;;;;5.04;57.17;97289.81;29990;224;6004;-57
2021/04/03 00:23:04;;;;;;;0.60;0.60;;;;;;;5.18;56.18;97295.66;29990;256;6000;-58
2021/04/03 00:23:35;;;;;;;0.60;0.60;;;;;;;5.24;55.95;97291.97;29989;254;6004;-56
2021/04/03 00:24:06;;;;;;;0.60;0.60;;;;;;;5.27;56.20;97288.78;29990;208;6000;-58
2021/04/03 00:24:37;;;;;;;0.60;0.60;;;;;;;5.32;55.74;97286.16;29990;212;6011;-58
2021/04/03 00:25:09;;;;;;;0.60;0.60;;;;;;;5.37;55.46;97291.59;29990;275;6000;-57
2021/04/03 00:25:39;;;;;;;0.60;0.60;;;;;;;5.32;55.85;97296.09;29990;212;6004;-56
2021/04/03 00:26:13;;;;;;;0.60;0.60;;;;;;;5.25;55.93;97293.59;29990;204;6000;-56
2021/04/03 00:26:43;;;;;;;0.60;0.60;;;;;;;5.09;56.49;97290.97;29990;214;6005;-57
2021/04/03 00:27:14;;;;;;;0.70;0.70;;;;;;;5.07;56.80;97296.59;29990;207;6000;-57
2021/04/03 00:27:45;;;;;;;1.25;1.25;;;;;;;5.14;56.81;97296.41;29990;253;6005;-56
2021/04/03 00:28:17;;;;;;;1.17;1.17;;;;;;;5.10;56.96;97297.97;29990;236;6012;-57
2021/04/03 00:28:48;;;;;;;0.60;0.60;;;;;;;5.15;56.73;97296.16;29989;225;6011;-57
2021/04/03 00:29:19;;;;;;;0.60;0.60;;;;;;;5.23;55.91;97293.03;29990;242;6000;-56
2021/04/03 00:29:49;;;;;;;0.60;0.60;;;;;;;5.18;56.38;97284.91;29990;212;6004;-57
2021/04/03 00:30:23;;;;;;;0.60;0.60;;;;;;;5.26;56.01;97287.16;29990;228;6000;-57
2021/04/03 00:30:53;;;;;;;0.60;0.60;;;;;;;5.31;55.85;97286.41;29990;217;6011;-56
2021/04/03 00:31:28;;;;;;;0.60;0.60;;;;;;;5.25;56.40;97295.47;29990;232;6007;-56
2021/04/03 00:31:59;;;;;;;0.60;0.60;;;;;;;5.25;56.40;97285.53;29990;249;6004;-58
2021/04/03 00:32:30;;;;;;;1.75;1.40;;;;;;;5.34;55.74;97289.41;29990;209;6000;-58
2021/04/03 00:33:03;;;;;;;0.60;0.60;;;;;;;5.35;55.76;97291.03;29990;204;6004;-56
2021/04/03 00:33:34;;;;;;;0.60;0.60;;;;;;;5.38;55.80;97290.53;29990;219;6000;-58
2021/04/03 00:34:05;;;;;;;0.60;0.60;;;;;;;5.44;55.53;97282.53;29989;214;6004;-56
2021/04/03 00:34:39;;;;;;;0.60;0.60;;;;;;;5.44;55.60;97287.94;29990;208;6000;-57
2021/04/03 00:35:12;;;;;;;0.60;0.60;;;;;;;5.36;55.80;97287.28;29990;212;6005;-57
2021/04/03 00:35:45;;;;;;;0.60;0.60;;;;;;;5.29;56.30;97285.84;29990;208;6000;-57
2021/04/03 00:36:16;;;;;;;0.60;0.60;;;;;;;5.21;56.35;97284.38;29990;211;6005;-59
2021/04/03 00:36:46;;;;;;;0.70;0.70;;;;;;;5.30;55.62;97285.59;29990;210;6000;-56
2021/04/03 00:37:17;;;;;;;0.70;0.70;;;;;;;5.33;55.66;97282.41;29990;198;6004;-57
2021/04/03 00:37:48;;;;;;;0.60;0.60;;;;;;;5.34;55.60;97289.41;29990;204;6000;-57
2021/04/03 00:38:19;;;;;;;0.60;0.60;;;;;;;5.25;56.10;97280.13;29990;208;6004;-57
2021/04/03 00:38:49;;;;;;;0.60;0.60;;;;;;;5.25;55.60;97285.53;29990;232;6000;-56
2021/04/03 00:39:20;;;;;;;0.60;0.60;;;;;;;5.21;55.93;97278.19;29989;247;6000;-57
2021/04/03 00:39:51;;;;;;;0.60;0.60;;;;;;;5.17;56.25;97277.91;29990;221;6000;-58
2021/04/03 00:40:30;;;;;;;0.60;0.60;;;;;;;5.36;54.99;97279.22;29990;209;6004;-58
2021/04/03 00:41:00;;;;;;;0.60;0.60;;;;;;;5.43;54.72;97286.28;29989;217;6000;-56
2021/04/03 00:41:31;;;;;;;0.60;0.60;;;;;;;5.42;54.77;97279.28;29990;210;6004;-57
2021/04/03 00:42:16;;;;;;;0.60;0.60;;;;;;;5.32;54.95;97279.97;29990;217;6000;-56
2021/04/03 00:42:48;;;;;;;0.60;0.60;;;;;;;5.23;55.07;97271.50;29990;234;6005;-56
2021/04/03 00:43:22;;;;;;;0.62;0.62;;;;;;;5.21;55.35;97279.00;29990;222;6000;-59
2021/04/03 00:43:52;;;;;;;0.70;0.70;;;;;;;5.27;54.92;97278.00;29990;202;6005;-57
2021/04/03 00:44:23;;;;;;;0.60;0.60;;;;;;;5.24;55.11;97277.69;29990;254;6000;-56
2021/04/03 00:44:53;;;;;;;1.33;1.33;;;;;;;5.24;54.96;97267.75;29990;245;6004;-56
2021/04/03 00:45:24;;;;;;;0.70;0.70;;;;;;;5.21;55.15;97270.13;29990;237;6000;-58
2021/04/03 00:45:55;;;;;;;0.70;0.70;;;;;;;5.24;54.51;97278.50;29989;256;6004;-56
2021/04/03 00:46:26;;;;;;;0.70;0.70;;;;;;;5.21;54.80;97273.63;29989;199;6008;-57
2021/04/03 00:46:57;;;;;;;0.70;0.70;;;;;;;5.16;55.04;97276.28;29990;231;6004;-57
2021/04/03 00:47:28;;;;;;;0.70;0.70;;;;;;;5.15;54.80;97274.66;29989;221;6000;-56
2021/04/03 00:47:59;;;;;;;0.60;0.60;;;;;;;5.13;55.13;97276.78;29990;240;6000;-58
2021/04/03 00:48:29;;;;;;;0.60;0.60;;;;;;;5.17;54.75;97272.53;29990;208;6000;-56
2021/04/03 00:49:03;;;;;;;0.65;0.65;;;;;;;5.12;54.79;97280.53;29990;202;6005;-54
2021/04/03 00:49:34;;;;;;;0.60;0.60;;;;;;;5.05;55.32;97280.69;29990;215;6000;-57
2021/04/03 00:50:05;;;;;;;0.60;0.60;;;;;;;4.88;55.17;97289.84;29990;266;6005;-56
2021/04/03 00:50:39;;;;;;;0.60;0.60;;;;;;;4.76;55.72;97281.88;29990;203;6000;-56
2021/04/03 00:51:09;;;;;;;0.70;0.70;;;;;;;4.75;56.58;97282.13;29990;221;6005;-56
2021/04/03 00:51:41;;;;;;;0.60;0.60;;;;;;;4.78;56.17;97285.16;29989;240;6000;-55
2021/04/03 00:52:13;;;;;;;0.60;0.60;;;;;;;4.76;56.26;97286.44;29990;204;6004;-56
2021/04/03 00:52:43;;;;;;;0.60;0.60;;;;;;;4.75;55.85;97282.13;29990;206;6010;-56
2021/04/03 00:53:27;;;;;;;0.68;0.68;;;;;;;4.84;56.30;97291.41;29989;226;6004;-59
2021/04/03 00:53:59;;;;;;;0.60;0.60;;;;;;;4.88;55.87;97279.09;29989;197;6000;-57
2021/04/03 00:54:30;;;;;;;0.60;0.60;;;;;;;4.87;55.93;97283.66;29990;199;6009;-56
2021/04/03 00:55:00;;;;;;;0.60;0.60;;;;;;;4.83;56.14;97287.91;29990;212;6000;-56
2021/04/03 00:55:32;;;;;;;0.60;0.60;;;;;;;4.77;56.14;97277.31;29990;214;6004;-57
2021/04/03 00:56:05;;;;;;;0.60;0.60;;;;;;;4.74;56.39;97288.56;29990;203;6000;-57
2021/04/03 00:56:35;;;;;;;0.70;0.70;;;;;;;4.82;55.99;97286.28;29990;227;6013;-57
2021/04/03 00:57:07;;;;;;;0.60;0.60;;;;;;;4.91;55.78;97282.09;29990;246;6000;-56
2021/04/03 00:57:39;;;;;;;0.60;0.60;;;;;;;4.90;56.02;97288.53;29990;264;6005;-56
2021/04/03 00:58:11;;;;;;;0.60;0.60;;;;;;;4.87;56.10;97282.84;29989;197;6000;-56
2021/04/03 00:58:42;;;;;;;5.22;4.87;;;;;;;4.94;55.71;97284.28;29989;258;6004;-57
2021/04/03 00:59:12;;;;;;;0.60;0.60;;;;;;;5.05;55.26;97279.87;29990;213;6000;-56
2021/04/03 00:59:43;;;;;;;0.60;0.60;;;;;;;5.03;55.03;97277.44;29990;200;6004;-57
2021/04/03 01:00:17;;;;;;;0.70;0.70;;;;;;;5.13;54.81;97276.78;29990;241;6000;-56
2021/04/03 01:00:48;;;;;;;0.60;0.60;;;;;;;5.20;54.22;97269.31;29990;214;6004;-56
2021/04/03 01:01:21;;;;;;;0.70;0.70;;;;;;;5.26;53.81;97271.00;29990;221;6000;-57
2021/04/03 01:01:52;;;;;;;0.65;0.65;;;;;;;5.36;53.45;97281.91;29990;203;6004;-57
2021/04/03 01:02:26;;;;;;;0.60;0.60;;;;;;;5.41;53.32;97264.19;29990;214;6000;-56
2021/04/03 01:02:57;;;;;;;0.60;0.60;;;;;;;5.31;53.66;97268.38;29989;202;6004;-56
2021/04/03 01:03:28;;;;;;;1.83;1.73;;;;;;;5.30;53.70;97266.75;29990;214;6008;-58
2021/04/03 01:03:59;;;;;;;0.60;0.60;;;;;;;5.30;53.29;97264.06;29990;239;6005;-56
2021/04/03 01:04:29;;;;;;;0.60;0.60;;;;;;;5.24;53.65;97267.75;29990;198;6000;-58
2021/04/03 01:05:01;;;;;;;1.30;1.30;;;;;;;5.38;52.77;97268.22;29990;271;6005;-57
2021/04/03 01:05:32;;;;;;;0.60;0.60;;;;;;;5.38;53.07;97269.03;29990;252;6000;-56
2021/04/03 01:06:04;;;;;;;0.70;0.70;;;;;;;5.41;52.92;97261.50;29990;282;6004;-57
2021/04/03 01:06:35;;;;;;;0.60;0.60;;;;;;;5.46;52.63;97269.66;29990;202;6000;-57
2021/04/03 01:07:05;;;;;;;1.50;1.50;;;;;;;5.45;52.90;97284.16;29990;214;6004;-56
2021/04/03 01:07:36;;;;;;;0.60;0.60;;;;;;;5.33;53.25;97273.53;29990;202;6000;-56
2021/04/03 01:08:08;;;;;;;0.60;0.60;;;;;;;5.19;53.57;97270.41;29989;262;6004;-57
2021/04/03 01:08:39;;;;;;;0.70;0.70;;;;;;;5.20;53.61;97269.31;29990;220;6000;-57
2021/04/03 01:09:13;;;;;;;0.80;0.80;;;;;;;5.23;53.54;97271.50;29990;275;6004;-57
2021/04/03 01:09:45;;;;;;;0.60;0.60;;;;;;;5.28;53.48;97274.25;29989;238;6000;-56
2021/04/03 01:10:19;;;;;;;0.60;0.60;;;;;;;5.24;53.39;97264.25;29990;263;6000;-58
2021/04/03 01:10:54;;;;;;;0.60;0.60;;;;;;;5.16;53.69;97276.28;29990;234;6000;-56
2021/04/03 01:11:30;;;;;;;0.60;0.60;;;;;;;5.22;53.59;97267.19;29990;245;6005;-57
2021/04/03 01:12:21;;;;;;;0.60;0.60;;;;;;;5.28;52.93;97268.88;29990;220;6000;-56
2021/04/03 01:13:29;;;;;;;0.62;0.62;;;;;;;5.28;53.00;97274.25;29989;231;6005;-57
2021/04/03 01:14:12;;;;;;;0.68;0.68;;;;;;;5.33;52.55;97265.44;29990;203;6004;-56
2021/04/03 01:15:22;;;;;;;0.70;0.70;;;;;;;5.19;53.17;97269.59;29990;212;6000;-57
2021/04/03 01:16:09;;;;;;;0.60;0.60;;;;;;;5.07;53.92;97277.75;29990;240;6004;-58
2021/04/03 01:16:50;;;;;;;2.30;2.20;;;;;;;5.00;53.75;97266.34;29990;219;6000;-56
2021/04/03 01:17:49;;;;;;;0.60;0.60;;;;;;;4.89;54.36;97275.34;29990;231;6008;-56
2021/04/03 01:19:08;;;;;;;0.60;0.60;;;;;;;4.68;54.78;97279.59;29989;216;6000;-56
2021/04/03 01:20:11;;;;;;;0.70;0.70;;;;;;;4.75;55.26;97276.75;29989;208;6005;-57
2021/04/03 01:21:08;;;;;;;0.60;0.60;;;;;;;4.81;54.96;97281.16;29990;202;6000;-57
2021/04/03 01:22:33;;;;;;;0.70;0.70;;;;;;;5.11;53.52;97273.50;29990;232;6009;-57
2021/04/03 01:23:43;;;;;;;0.75;0.75;;;;;;;5.11;53.41;97272.69;29990;352;6000;-57
2021/04/03 01:24:36;;;;;;;0.60;0.60;;;;;;;4.91;54.36;97270.53;29989;236;6004;-56
2021/04/03 01:25:54;;;;;;;0.70;0.70;;;;;;;4.97;53.81;97261.47;29990;213;6000;-56
2021/04/03 01:27:17;;;;;;;0.60;0.60;;;;;;;4.78;54.57;97268.19;29990;207;6005;-56
2021/04/03 01:28:28;;;;;;;0.70;0.70;;;;;;;4.85;53.97;97263.47;29990;231;6000;-58
2021/04/03 01:30:05;;;;;;;0.60;0.60;;;;;;;5.21;52.67;97256.66;29990;266;6004;-57
2021/04/03 01:30:39;;;;;;;0.70;0.70;;;;;;;5.26;52.19;97252.16;29989;260;6000;-58
2021/04/03 01:31:12;;;;;;;0.60;0.60;;;;;;;5.14;52.84;97250.69;29990;204;6004;-56
2021/04/03 01:31:45;;;;;;;0.70;0.70;;;;;;;4.98;53.26;97252.34;29990;247;6000;-56
2021/04/03 01:32:19;;;;;;;0.70;0.70;;;;;;;4.91;54.01;97262.47;29990;210;6004;-57
2021/04/03 01:32:57;;;;;;;0.70;0.70;;;;;;;4.78;54.23;97262.81;29990;254;6008;-57
2021/04/03 01:33:31;;;;;;;0.70;0.70;;;;;;;4.75;54.54;97257.94;29990;213;6004;-57
2021/04/03 01:34:02;;;;;;;0.65;0.65;;;;;;;4.73;54.72;97268.94;29989;236;6000;-56
2021/04/03 01:34:37;;;;;;;0.60;0.60;;;;;;;4.64;54.95;97252.41;29990;225;6005;-57
2021/04/03 01:35:09;;;;;;;0.70;0.70;;;;;;;4.66;55.02;97263.72;29990;244;6000;-57
2021/04/03 01:36:03;;;;;;;0.60;0.60;;;;;;;4.77;54.78;97269.25;29989;236;6009;-56
2021/04/03 01:36:37;;;;;;;0.60;0.60;;;;;;;4.89;54.21;97259.19;29990;236;6000;-57
2021/04/03 01:37:13;;;;;;;0.70;0.70;;;;;;;5.01;53.80;97257.22;29990;230;6004;-56
2021/04/03 01:37:52;;;;;;;0.60;0.60;;;;;;;5.06;53.57;97260.00;29990;250;6000;-57
2021/04/03 01:38:45;;;;;;;0.60;0.60;;;;;;;5.09;53.37;97256.00;29989;202;6004;-56
2021/04/03 01:39:29;;;;;;;0.70;0.70;;;;;;;5.13;53.01;97255.25;29990;233;6000;-59
2021/04/03 01:40:01;;;;;;;0.60;0.60;;;;;;;5.21;52.88;97245.91;29989;239;6004;-56
2021/04/03 01:40:34;;;;;;;0.60;0.60;;;;;;;5.16;52.81;97249.37;29990;228;6000;-56
2021/04/03 01:41:05;;;;;;;0.70;0.70;;;;;;;5.04;53.43;97256.72;29990;206;6004;-57
2021/04/03 01:41:37;;;;;;;0.70;0.70;;;;;;;5.05;53.22;97253.81;29990;200;6000;-56
2021/04/03 01:42:13;;;;;;;0.60;0.60;;;;;;;5.04;53.29;97257.56;29990;223;6005;-59
2021/04/03 01:42:49;;;;;;;3.12;1.17;;;;;;;5.07;52.89;97250.88;29990;197;6000;-57
2021/04/03 01:43:23;;;;;;;0.70;0.70;;;;;;;5.05;52.98;97252.97;29990;197;6005;-58
2021/04/03 01:43:58;;;;;;;0.60;0.60;;;;;;;5.10;52.93;97255.75;29990;230;6000;-57
2021/04/03 01:44:34;;;;;;;0.75;0.75;;;;;;;5.10;53.16;97266.50;29990;218;6004;-56
2021/04/03 01:45:07;;;;;;;0.70;0.70;;;;;;;4.95;53.46;97258.22;29989;236;6000;-57
2021/04/03 01:45:41;;;;;;;0.70;0.70;;;;;;;4.91;53.74;97262.47;29990;238;6004;-57
2021/04/03 01:46:16;;;;;;;0.60;0.60;;;;;;;4.83;53.91;97263.72;29990;214;6000;-57
2021/04/03 01:46:52;;;;;;;0.60;0.60;;;;;;;4.78;54.47;97268.19;29990;204;6004;-56
2021/04/03 01:47:27;;;;;;;0.60;0.60;;;;;;;4.74;54.50;97269.75;29990;240;6008;-56
2021/04/03 01:47:59;;;;;;;0.70;0.70;;;;;;;4.71;54.93;97271.06;29990;246;6004;-57
2021/04/03 01:48:32;;;;;;;0.70;0.70;;;;;;;4.79;54.49;97264.47;29990;220;6000;-57
2021/04/03 01:49:12;;;;;;;0.70;0.70;;;;;;;4.85;54.34;97263.47;29990;274;6005;-56
2021/04/03 01:49:43;;;;;;;0.60;0.60;;;;;;;4.80;54.58;97266.09;29989;248;6000;-57
2021/04/03 01:50:14;;;;;;;0.60;0.60;;;;;;;4.74;54.80;97267.88;29989;199;6005;-56
2021/04/03 01:50:46;;;;;;;0.60;0.60;;;;;;;4.68;55.03;97269.66;29990;210;6000;-56
2021/04/03 01:51:19;;;;;;;0.60;0.60;;;;;;;4.71;55.06;97269.19;29990;221;6005;-56
2021/04/03 01:51:52;;;;;;;0.60;0.60;;;;;;;4.73;54.65;97266.25;29990;282;6000;-56
2021/04/03 01:52:26;;;;;;;0.65;0.65;;;;;;;4.77;54.97;97272.75;29990;207;6004;-57
2021/04/03 01:52:57;;;;;;;0.60;0.60;;;;;;;4.81;54.26;97263.16;29989;256;6000;-57
2021/04/03 01:53:29;;;;;;;0.70;0.70;;;;;;;4.78;54.75;97268.19;29989;223;6004;-57
2021/04/03 01:54:00;;;;;;;0.60;0.60;;;;;;;4.71;54.87;97266.50;29990;198;6000;-57
2021/04/03 01:54:33;;;;;;;0.60;0.60;;;;;;;4.78;54.56;97260.13;29990;199;6004;-57
2021/04/03 01:55:09;;;;;;;0.60;0.60;;;;;;;4.80;54.38;97266.91;29990;243;6008;-56
2021/04/03 01:55:41;;;;;;;0.70;0.70;;;;;;;4.81;54.53;97267.72;29990;222;6005;-56
2021/04/03 01:56:15;;;;;;;0.70;0.70;;;;;;;4.80;54.49;97260.72;29990;212;6000;-56
2021/04/03 01:56:48;;;;;;;0.60;0.60;;;;;;;4.74;54.70;97259.81;29990;228;6005;-56
2021/04/03 01:57:19;;;;;;;0.60;0.60;;;;;;;4.75;54.63;97261.44;29989;217;6012;-56
2021/04/03 01:57:52;;;;;;;0.60;0.60;;;;;;;4.74;54.98;97262.50;29990;197;6005;-56
2021/04/03 01:58:24;;;;;;;0.60;0.60;;;;;;;4.69;55.06;97257.84;29990;239;6000;-56
2021/04/03 01:58:56;;;;;;;0.60;0.60;;;;;;;4.61;55.46;97269.03;29990;197;6008;-57
2021/04/03 01:59:27;;;;;;;0.60;0.60;;;;;;;4.58;55.80;97258.75;29990;228;6008;-57
2021/04/03 01:59:59;;;;;;;0.60;0.60;;;;;;;4.52;55.41;97265.09;29990;203;6013;-57
2021/04/03 02:00:33;;;;;;;0.60;0.60;;;;;;;4.48;55.96;97273.94;29990;205;6009;-57
2021/04/03 02:01:06;;;;;;;0.60;0.60;;;;;;;4.46;56.07;97267.97;29989;275;6004;-57
2021/04/03 02:01:38;;;;;;;0.60;0.60;;;;;;;4.51;55.79;97258.09;29990;215;6000;-56
2021/04/03 02:02:09;;;;;;;0.60;0.60;;;;;;;4.52;55.79;97264.28;29990;199;6004;-56
2021/04/03 02:02:40;;;;;;;0.60;0.60;;;;;;;4.47;55.99;97257.00;29990;237;6000;-56
2021/04/03 02:03:12;;;;;;;0.68;0.68;;;;;;;4.44;56.04;97262.84;29990;229;6005;-57
2021/04/03 02:03:44;;;;;;;0.60;0.60;;;;;;;4.45;56.31;97264.47;29990;225;6000;-56
2021/04/03 02:04:17;;;;;;;0.60;0.60;;;;;;;4.46;56.02;97255.38;29990;256;6005;-56
2021/04/03 02:04:50;;;;;;;0.70;0.70;;;;;;;4.46;56.03;97252.69;29989;285;6000;-56
2021/04/03 02:05:22;;;;;;;0.70;0.70;;;;;;;4.50;56.00;97258.38;29990;222;6005;-57
2021/04/03 02:05:54;;;;;;;0.60;0.60;;;;;;;4.50;55.89;97255.69;29990;202;6000;-56
2021/04/03 02:06:29;;;;;;;0.60;0.60;;;;;;;4.53;56.09;97261.34;29990;256;6004;-58
2021/04/03 02:07:10;;;;;;;0.60;0.60;;;;;;;4.58;55.97;97257.94;29990;204;6006;-57
2021/04/03 02:07:46;;;;;;;0.60;0.60;;;;;;;4.58;55.67;97255.25;29990;206;6004;-57
2021/04/03 02:08:21;;;;;;;0.60;0.60;;;;;;;4.55;55.67;97259.25;29990;227;6000;-56
2021/04/03 02:08:54;;;;;;;0.60;0.60;;;;;;;4.50;55.83;97256.50;29990;280;6004;-56
2021/04/03 02:09:28;;;;;;;0.60;0.60;;;;;;;4.46;55.90;97260.75;29990;227;6000;-57
2021/04/03 02:10:00;;;;;;;0.60;0.60;;;;;;;4.45;56.00;97250.22;29989;205;6004;-57
2021/04/03 02:10:32;;;;;;;0.60;0.60;;;;;;;4.40;56.09;97260.91;29990;231;6000;-56
2021/04/03 02:11:05;;;;;;;0.60;0.60;;;;;;;4.37;56.56;97262.19;29990;232;6005;-56
2021/04/03 02:11:38;;;;;;;0.60;0.60;;;;;;;4.37;56.61;97260.31;29990;240;6000;-57
2021/04/03 02:12:11;;;;;;;0.60;0.60;;;;;;;4.41;56.52;97263.34;29990;202;6005;-56
2021/04/03 02:12:44;;;;;;;0.60;0.60;;;;;;;4.39;56.41;97254.72;29990;230;6000;-56
2021/04/03 02:13:15;;;;;;;0.60;0.60;;;;;;;4.34;56.84;97257.31;29990;239;6004;-57
2021/04/03 02:13:47;;;;;;;0.60;0.60;;;;;;;4.33;56.69;97255.69;29989;253;6000;-57
2021/04/03 02:14:21;;;;;;;0.60;0.60;;;;;;;4.32;56.65;97254.88;29990;196;6004;-57
2021/04/03 02:14:54;;;;;;;0.60;0.60;;;;;;;4.29;56.26;97260.72;29990;207;6010;-56
2021/04/03 02:15:26;;;;;;;0.60;0.60;;;;;;;4.26;56.92;97260.38;29990;249;6004;-57
2021/04/03 02:16:01;;;;;;;0.60;0.60;;;;;;;4.31;57.00;97268.53;29990;214;6000;-57
2021/04/03 02:16:34;;;;;;;0.60;0.60;;;;;;;4.39;56.69;97260.09;29989;227;6004;-57
2021/04/03 02:17:07;;;;;;;0.60;0.60;;;;;;;4.38;56.58;97253.06;29990;213;6000;-57
2021/04/03 02:17:39;;;;;;;0.70;0.70;;;;;;;4.49;56.38;97252.19;29990;256;6004;-56
2021/04/03 02:18:11;;;;;;;0.60;0.60;;;;;;;4.58;55.88;97250.69;29990;213;6000;-57
2021/04/03 02:18:43;;;;;;;0.60;0.60;;;;;;;4.60;56.03;97251.25;29990;209;6005;-57
2021/04/03 02:19:15;;;;;;;0.68;0.68;;;;;;;4.62;55.95;97249.16;29989;216;6000;-58
2021/04/03 02:19:46;;;;;;;0.60;0.60;;;;;;;4.63;55.77;97253.47;29990;212;6005;-57
2021/04/03 02:20:17;;;;;;;0.60;0.60;;;;;;;4.61;56.04;97252.06;29990;237;6000;-57
2021/04/03 02:20:48;;;;;;;0.60;0.60;;;;;;;4.61;56.09;97252.91;29990;259;6004;-58
2021/04/03 02:21:19;;;;;;;0.60;0.60;;;;;;;4.80;54.93;97247.25;29990;259;6000;-57
2021/04/03 02:21:50;;;;;;;0.60;0.60;;;;;;;4.80;55.05;97244.56;29990;237;6004;-56
2021/04/03 02:22:22;;;;;;;0.60;0.60;;;;;;;4.74;55.35;97251.75;29990;198;6000;-56
2021/04/03 02:22:54;;;;;;;1.15;1.15;;;;;;;4.73;55.59;97250.13;29990;197;6004;-56
2021/04/03 02:23:27;;;;;;;0.60;0.60;;;;;;;4.82;55.19;97242.47;29990;215;6000;-57
2021/04/03 02:23:58;;;;;;;0.70;0.70;;;;;;;4.85;55.08;97247.34;29989;231;6004;-56
2021/04/03 02:24:29;;;;;;;0.60;0.60;;;;;;;4.76;55.44;97244.25;29990;219;6000;-57
2021/04/03 02:25:03;;;;;;;0.77;0.77;;;;;;;4.76;55.31;97256.87;29990;222;6004;-56
2021/04/03 02:25:34;;;;;;;0.60;0.60;;;;;;;4.71;55.74;97253.06;29990;220;6000;-57
2021/04/03 02:26:05;;;;;;;0.60;0.60;;;;;;;4.79;55.30;97242.94;29990;225;6005;-57
2021/04/03 02:26:37;;;;;;;0.60;0.60;;;;;;;4.79;55.30;97253.69;29990;226;6000;-56
2021/04/03 02:27:07;;;;;;;0.60;0.60;;;;;;;4.82;55.46;97248.66;29990;242;6005;-57
2021/04/03 02:27:39;;;;;;;0.60;0.60;;;;;;;4.91;54.84;97251.69;29990;236;6000;-56
2021/04/03 02:28:10;;;;;;;0.60;0.60;;;;;;;4.85;55.06;97247.34;29990;223;6005;-56
2021/04/03 02:28:41;;;;;;;0.60;0.60;;;;;;;4.83;55.33;97252.16;29989;252;6000;-56
2021/04/03 02:29:13;;;;;;;0.60;0.60;;;;;;;4.77;55.21;97247.75;29990;218;6004;-55
2021/04/03 02:29:45;;;;;;;0.70;0.70;;;;;;;4.78;55.05;97247.50;29990;262;6000;-57
2021/04/03 02:30:19;;;;;;;0.60;0.60;;;;;;;4.87;54.95;97247.88;29990;265;6004;-58
2021/04/03 02:30:53;;;;;;;0.62;0.62;;;;;;;4.92;55.04;97254.16;29990;243;6000;-56
2021/04/03 02:31:24;;;;;;;0.60;0.60;;;;;;;4.84;55.54;97248.41;29990;246;6004;-56
2021/04/03 02:31:55;;;;;;;0.60;0.60;;;;;;;4.79;55.33;97251.00;29990;227;6000;-56
2021/04/03 02:32:27;;;;;;;0.60;0.60;;;;;;;4.75;55.59;97253.38;29989;221;6004;-56
2021/04/03 02:33:01;;;;;;;0.60;0.60;;;;;;;4.68;55.67;97248.16;29990;254;6000;-56
2021/04/03 02:33:32;;;;;;;0.60;0.60;;;;;;;4.65;56.04;97254.03;29990;239;6005;-56
2021/04/03 02:34:04;;;;;;;0.60;0.60;;;;;;;4.70;56.16;97251.44;29990;199;6000;-58
2021/04/03 02:34:35;;;;;;;0.60;0.60;;;;;;;4.84;55.36;97251.09;29990;219;6005;-60
2021/04/03 02:35:07;;;;;;;0.60;0.60;;;;;;;4.93;54.97;97249.59;29990;218;6000;-57
2021/04/03 02:35:42;;;;;;;0.60;0.60;;;;;;;4.94;55.18;97251.22;29990;202;6005;-57
2021/04/03 02:36:12;;;;;;;0.70;0.70;;;;;;;4.92;54.72;97247.94;29990;234;6000;-56
2021/04/03 02:36:44;;;;;;;0.60;0.60;;;;;;;4.83;55.04;97254.84;29990;223;6004;-57
2021/04/03 02:37:15;;;;;;;0.60;0.60;;;;;;;4.74;55.60;97253.62;29989;242;6013;-56
2021/04/03 02:37:48;;;;;;;0.60;0.60;;;;;;;4.67;55.72;97257.28;29990;247;6004;-57
2021/04/03 02:38:22;;;;;;;0.60;0.60;;;;;;;4.58;56.92;97247.19;29990;216;6000;-56
2021/04/03 02:38:53;;;;;;;0.60;0.60;;;;;;;4.50;56.85;97253.81;29991;209;6004;-57
2021/04/03 02:39:23;;;;;;;0.60;0.60;;;;;;;4.52;56.93;97253.53;29991;237;6000;-56
2021/04/03 02:39:54;;;;;;;0.60;0.60;;;;;;;4.50;56.66;97256.50;29991;219;6004;-56
2021/04/03 02:40:29;;;;;;;0.60;0.60;;;;;;;4.45;57.28;97264.47;29991;203;6000;-57
2021/04/03 02:41:00;;;;;;;0.60;0.60;;;;;;;4.40;57.15;97261.72;29991;261;6005;-57
2021/04/03 02:42:01;;;;;;;0.60;0.60;;;;;;;4.44;57.28;97262.84;29991;222;6000;-56
2021/04/03 02:42:37;;;;;;;0.60;0.60;;;;;;;4.60;56.66;97255.81;29991;212;6004;-57
2021/04/03 02:43:43;;;;;;;0.60;0.60;;;;;;;4.78;55.84;97254.75;29990;208;6000;-56
2021/04/03 02:44:33;;;;;;;0.70;0.70;;;;;;;4.72;55.77;97254.69;29991;219;6004;-56
2021/04/03 02:45:09;;;;;;;0.60;0.60;;;;;;;4.66;56.17;97255.66;29991;243;6000;-57
2021/04/03 02:45:46;;;;;;;0.65;0.65;;;;;;;4.58;56.35;97258.75;29991;239;6004;-56
2021/04/03 02:46:41;;;;;;;0.60;0.60;;;;;;;4.47;57.27;97257.00;29991;229;6000;-56
2021/04/03 02:47:21;;;;;;;0.60;0.60;;;;;;;4.38;57.21;97258.44;29990;252;6004;-57
2021/04/03 02:47:58;;;;;;;0.70;0.70;;;;;;;4.38;57.67;97258.44;29991;227;6000;-57
2021/04/03 02:48:32;;;;;;;0.60;0.60;;;;;;;4.39;57.59;97257.41;29991;223;6005;-56
2021/04/03 02:49:08;;;;;;;0.62;0.62;;;;;;;4.42;57.63;97258.78;29991;215;6000;-56
2021/04/03 02:50:03;;;;;;;0.60;0.60;;;;;;;4.44;57.20;97259.34;29991;231;6009;-56
2021/04/03 02:50:40;;;;;;;0.70;0.70;;;;;;;4.41;57.58;97257.16;29991;267;6000;-56
2021/04/03 02:51:14;;;;;;;0.60;0.60;;;;;;;4.40;57.46;97259.03;29991;196;6004;-56